createdAt,value
2019-04-04T00:01:51.679Z,82.20
2019-04-04T00:05:57.127Z,82.10
2019-04-04T00:10:04.014Z,83.40
2019-04-04T00:14:12.629Z,82.70
2019-04-04T00:18:16.590Z,82.60
2019-04-04T00:22:21.885Z,82.70
2019-04-04T00:26:27.167Z,82.60
2019-04-04T00:30:32.458Z,83.50
2019-04-04T00:34:37.735Z,84.30
2019-04-04T00:38:43.048Z,84.90
2019-04-04T00:42:48.735Z,85.00
2019-04-04T00:46:54.018Z,86.80
2019-04-04T00:50:59.290Z,87.10
2019-04-04T00:55:06.497Z,87.50
2019-04-04T00:59:11.850Z,87.50
2019-04-04T01:03:17.165Z,87.60
2019-04-04T01:07:22.427Z,87.50
2019-04-04T01:11:27.730Z,87.60
2019-04-04T01:15:32.970Z,88.10
2019-04-04T01:19:38.289Z,89.80
2019-04-04T01:23:43.572Z,90.30
2019-04-04T01:27:48.893Z,90.80
2019-04-04T01:31:54.160Z,91.70
2019-04-04T01:35:59.413Z,92.10
2019-04-04T01:40:05.838Z,92.60
2019-04-04T01:44:11.735Z,92.90
2019-04-04T01:48:18.786Z,93.00
2019-04-04T01:52:27.898Z,93.00
2019-04-04T01:56:33.026Z,93.10
2019-04-04T02:00:38.350Z,93.60
2019-04-04T02:04:43.634Z,95.90
2019-04-04T02:08:48.969Z,97.40
2019-04-04T02:12:54.201Z,98.10
2019-04-04T02:16:59.484Z,99.30
2019-04-04T02:21:04.752Z,99.90
2019-04-04T02:25:10.374Z,99.90
2019-04-04T02:29:15.675Z,99.90
2019-04-04T02:33:20.963Z,99.90
2019-04-04T02:37:25.968Z,99.90
2019-04-04T02:41:30.959Z,99.90
2019-04-04T02:45:38.857Z,99.90
2019-04-04T02:49:42.571Z,99.90
2019-04-04T02:53:51.836Z,99.90
2019-04-04T02:57:54.197Z,99.90
2019-04-04T03:01:59.196Z,99.90
2019-04-04T03:06:04.264Z,99.90
2019-04-04T03:10:09.644Z,99.90
2019-04-04T03:14:14.578Z,99.90
2019-04-04T03:18:19.602Z,99.90
2019-04-04T03:22:27.324Z,99.90
2019-04-04T03:26:31.332Z,99.90
2019-04-04T03:30:36.349Z,99.90
2019-04-04T03:34:47.705Z,99.90
2019-04-04T03:38:47.974Z,99.90
2019-04-04T03:42:53.052Z,99.90
2019-04-04T03:46:58.081Z,99.90
2019-04-04T03:51:04.771Z,99.90
2019-04-04T03:55:09.940Z,99.90
2019-04-04T03:59:14.952Z,99.90
2019-04-04T04:03:22.419Z,99.90
2019-04-04T04:07:26.563Z,99.90
2019-04-04T04:11:31.572Z,99.90
2019-04-04T04:15:36.607Z,99.90
2019-04-04T04:19:41.610Z,99.90
2019-04-04T04:23:49.701Z,99.90
2019-04-04T04:27:53.252Z,99.90
2019-04-04T04:31:58.238Z,99.90
2019-04-04T04:36:03.332Z,99.90
2019-04-04T04:40:13.782Z,99.90
2019-04-04T04:44:15.529Z,99.90
2019-04-04T04:48:20.616Z,99.90
2019-04-04T04:52:25.666Z,99.90
2019-04-04T04:56:31.286Z,99.90
2019-04-04T05:00:36.978Z,99.90
2019-04-04T05:04:41.977Z,99.90
2019-04-04T05:08:47.142Z,99.90
2019-04-04T05:12:53.033Z,99.90
2019-04-04T05:16:59.056Z,99.90
2019-04-04T05:21:04.329Z,99.90
2019-04-04T05:25:10.082Z,94.80
2019-04-04T05:29:15.354Z,91.30
2019-04-04T05:33:22.796Z,87.00
2019-04-04T05:37:27.684Z,78.40
2019-04-04T05:41:33.034Z,73.40
2019-04-04T05:45:38.333Z,69.30
2019-04-04T05:49:43.634Z,67.30
2019-04-04T05:53:48.921Z,62.10
2019-04-04T05:57:54.202Z,57.10
2019-04-04T06:01:59.489Z,55.10
2019-04-04T06:06:04.949Z,48.30
2019-04-04T06:10:12.027Z,44.20
2019-04-04T06:14:17.214Z,41.70
2019-04-04T06:18:22.514Z,39.00
2019-04-04T06:22:27.790Z,37.70
2019-04-04T06:26:33.087Z,38.40
2019-04-04T06:30:43.397Z,36.30
2019-04-04T06:34:47.103Z,36.20
2019-04-04T06:38:53.976Z,34.20
2019-04-04T06:42:59.287Z,30.50
2019-04-04T06:47:04.959Z,28.60
2019-04-04T06:51:13.848Z,26.90
2019-04-04T06:55:17.163Z,27.20
2019-04-04T06:59:23.432Z,28.60
2019-04-04T07:03:28.696Z,29.30
2019-04-04T07:07:34.094Z,28.90
2019-04-04T07:11:39.446Z,29.00
2019-04-04T07:15:46.897Z,34.10
2019-04-04T07:19:51.753Z,36.80
2019-04-04T07:23:59.307Z,36.80
2019-04-04T07:28:03.937Z,36.30
2019-04-04T07:32:10.150Z,35.40
2019-04-04T07:36:15.518Z,31.70
2019-04-04T07:40:20.819Z,31.20
2019-04-04T07:44:26.109Z,30.00
2019-04-04T07:48:31.393Z,27.80
2019-04-04T07:52:36.681Z,26.60
2019-04-04T07:56:43.509Z,26.00
2019-04-04T08:00:48.978Z,24.80
2019-04-04T08:04:54.271Z,24.80
2019-04-04T08:08:59.555Z,24.30
2019-04-04T08:13:04.854Z,23.50
2019-04-04T08:17:10.143Z,23.40
2019-04-04T08:21:15.438Z,23.60
2019-04-04T08:25:20.801Z,23.60
2019-04-04T08:29:26.103Z,23.40
2019-04-04T08:33:31.373Z,22.80
2019-04-04T08:37:36.673Z,22.30
2019-04-04T08:41:42.006Z,23.40
2019-04-04T08:45:48.386Z,23.80
2019-04-04T08:49:53.665Z,24.10
2019-04-04T08:53:58.933Z,24.60
2019-04-04T08:58:05.189Z,24.50
2019-04-04T09:02:10.505Z,25.00
2019-04-04T09:06:15.796Z,25.90
2019-04-04T09:10:21.109Z,26.50
2019-04-04T09:14:26.350Z,26.40
2019-04-04T09:18:31.647Z,27.80
2019-04-04T09:22:37.055Z,28.60
2019-04-04T09:26:42.358Z,26.60
2019-04-04T09:30:47.637Z,25.50
2019-04-04T09:34:52.918Z,24.10
2019-04-04T09:38:58.190Z,23.70
2019-04-04T09:43:03.512Z,21.70
2019-04-04T09:47:08.798Z,21.50
2019-04-04T09:51:14.110Z,21.60
2019-04-04T09:55:19.434Z,21.30
2019-04-04T09:59:24.689Z,21.30
2019-04-04T10:03:30.070Z,22.00
2019-04-04T10:07:35.351Z,21.20
2019-04-04T10:11:40.705Z,22.30
2019-04-04T10:15:46.033Z,23.50
2019-04-04T10:19:52.060Z,23.80
2019-04-04T10:23:57.442Z,24.10
2019-04-04T10:28:03.765Z,25.40
2019-04-04T10:32:09.042Z,25.90
2019-04-04T10:36:14.418Z,25.20
2019-04-04T10:40:19.833Z,24.30
2019-04-04T10:44:25.085Z,24.70
2019-04-04T10:48:30.366Z,25.00
2019-04-04T10:52:35.633Z,25.40
2019-04-04T10:56:40.971Z,25.10
2019-04-04T11:00:46.237Z,25.10
2019-04-04T11:04:51.498Z,25.20
2019-04-04T11:08:56.777Z,25.70
2019-04-04T11:13:03.033Z,26.70
2019-04-04T11:17:08.453Z,26.60
2019-04-04T11:21:14.812Z,26.60
2019-04-04T11:25:20.279Z,26.90
2019-04-04T11:29:25.561Z,25.90
2019-04-04T11:33:30.825Z,26.70
2019-04-04T11:37:36.142Z,26.90
2019-04-04T11:41:41.422Z,28.50
2019-04-04T11:45:46.706Z,29.90
2019-04-04T11:49:52.380Z,31.20
2019-04-04T11:53:57.793Z,32.00
2019-04-04T11:58:03.082Z,32.80
2019-04-04T12:02:08.358Z,34.50
2019-04-04T12:06:13.642Z,34.60
2019-04-04T12:10:18.941Z,34.40
2019-04-04T12:14:24.207Z,35.80
2019-04-04T12:18:29.488Z,35.30
2019-04-04T12:22:34.808Z,37.80
2019-04-04T12:26:40.085Z,37.40
2019-04-04T12:30:46.024Z,36.10
2019-04-04T12:34:51.759Z,37.00
2019-04-04T12:38:57.789Z,38.80
2019-04-04T12:43:04.157Z,39.60
2019-04-04T12:47:10.020Z,39.50
2019-04-04T12:51:15.913Z,40.00
2019-04-04T12:55:21.282Z,40.50
2019-04-04T12:59:27.178Z,39.50
2019-04-04T13:03:32.453Z,40.70
2019-04-04T13:07:37.845Z,40.50
2019-04-04T13:11:43.118Z,39.20
2019-04-04T13:15:48.382Z,39.70
2019-04-04T13:19:53.661Z,40.10
2019-04-04T13:23:58.944Z,40.70
2019-04-04T13:28:04.379Z,40.70
2019-04-04T13:32:09.657Z,40.80
2019-04-04T13:36:14.929Z,40.40
2019-04-04T13:40:20.207Z,38.80
2019-04-04T13:44:25.504Z,39.40
2019-04-04T13:48:30.780Z,39.60
2019-04-04T13:52:36.078Z,39.30
2019-04-04T13:56:41.408Z,39.20
2019-04-04T14:00:46.738Z,40.40
2019-04-04T14:04:55.059Z,39.50
2019-04-04T14:09:00.105Z,39.80
2019-04-04T14:13:05.480Z,39.30
2019-04-04T14:17:11.829Z,39.50
2019-04-04T14:21:17.090Z,39.30
2019-04-04T14:25:22.375Z,38.60
2019-04-04T14:29:28.164Z,38.20
2019-04-04T14:33:33.456Z,38.30
2019-04-04T14:37:38.765Z,38.70
2019-04-04T14:41:44.069Z,38.30
2019-04-04T14:45:49.392Z,38.40
2019-04-04T14:49:54.677Z,38.50
2019-04-04T14:54:01.970Z,38.50
2019-04-04T14:58:06.914Z,38.50
2019-04-04T15:02:13.819Z,38.90
2019-04-04T15:06:19.102Z,38.40
2019-04-04T15:10:24.396Z,38.50
2019-04-04T15:14:29.669Z,38.80
2019-04-04T15:18:34.941Z,39.20
2019-04-04T15:22:40.669Z,39.30
2019-04-04T15:26:46.265Z,39.40
2019-04-04T15:30:51.550Z,39.50
2019-04-04T15:34:56.895Z,39.70
2019-04-04T15:39:02.186Z,40.20
2019-04-04T15:43:09.049Z,40.30
2019-04-04T15:47:14.299Z,39.70
2019-04-04T15:51:19.588Z,39.60
2019-04-04T15:55:24.880Z,39.10
2019-04-04T15:59:30.148Z,39.60
2019-04-04T16:03:35.500Z,39.40
2019-04-04T16:07:40.795Z,39.60
2019-04-04T16:11:49.643Z,39.80
2019-04-04T16:15:53.586Z,40.30
2019-04-04T16:19:58.909Z,40.70
2019-04-04T16:24:04.562Z,41.00
2019-04-04T16:28:09.856Z,41.30
2019-04-04T16:32:15.206Z,41.80
2019-04-04T16:36:20.489Z,42.30
2019-04-04T16:40:25.841Z,43.10
2019-04-04T16:44:31.119Z,43.10
2019-04-04T16:48:36.510Z,43.70
2019-04-04T16:52:41.785Z,44.20
2019-04-04T16:56:47.073Z,44.90
2019-04-04T17:00:52.426Z,45.40
2019-04-04T17:04:57.713Z,46.40
2019-04-04T17:09:03.370Z,47.00
2019-04-04T17:13:09.212Z,47.60
2019-04-04T17:17:14.679Z,48.50
2019-04-04T17:21:20.002Z,49.30
2019-04-04T17:25:25.273Z,50.10
2019-04-04T17:29:30.574Z,51.10
2019-04-04T17:33:36.968Z,52.30
2019-04-04T17:37:42.412Z,53.30
2019-04-04T17:41:50.155Z,54.30
2019-04-04T17:45:55.440Z,55.40
2019-04-04T17:50:00.825Z,56.50
2019-04-04T17:54:06.155Z,57.70
2019-04-04T17:58:11.571Z,58.80
2019-04-04T18:02:17.073Z,59.70
2019-04-04T18:06:24.238Z,60.60
2019-04-04T18:10:29.904Z,62.40
2019-04-04T18:14:35.229Z,62.90
2019-04-04T18:18:40.490Z,63.90
2019-04-04T18:22:47.664Z,65.20
2019-04-04T18:26:52.970Z,65.70
2019-04-04T18:30:58.301Z,66.10
2019-04-04T18:35:04.051Z,66.60
2019-04-04T18:39:09.770Z,67.60
2019-04-04T18:43:15.342Z,68.50
2019-04-04T18:47:21.431Z,69.60
2019-04-04T18:51:26.998Z,70.40
2019-04-04T18:55:33.460Z,71.20
2019-04-04T18:59:38.994Z,71.80
2019-04-04T19:03:44.975Z,72.60
2019-04-04T19:07:50.863Z,73.90
2019-04-04T19:11:57.056Z,74.80
2019-04-04T19:16:02.336Z,75.80
2019-04-04T19:20:10.074Z,76.80
2019-04-04T19:24:15.728Z,77.00
2019-04-04T19:28:21.015Z,76.90
2019-04-04T19:32:26.474Z,77.40
2019-04-04T19:36:31.958Z,77.70
2019-04-04T19:40:37.374Z,78.10
2019-04-04T19:44:52.660Z,78.80
2019-04-04T19:48:49.826Z,79.30
2019-04-04T19:52:55.164Z,78.80
2019-04-04T19:57:00.554Z,77.50
2019-04-04T20:01:06.267Z,78.30
2019-04-04T20:05:12.767Z,77.80
2019-04-04T20:09:18.099Z,78.10
2019-04-04T20:13:30.644Z,78.50
2019-04-04T20:17:30.402Z,80.60
2019-04-04T20:21:35.664Z,81.30
2019-04-04T20:25:40.947Z,81.60
2019-04-04T20:29:46.278Z,82.40
2019-04-04T20:34:01.035Z,83.00
2019-04-04T20:37:58.459Z,84.10
2019-04-04T20:42:03.741Z,85.40
2019-04-04T20:46:09.070Z,86.10
2019-04-04T20:50:14.531Z,86.70
2019-04-04T20:54:19.795Z,87.60
2019-04-04T20:58:25.086Z,90.80
2019-04-04T21:02:30.462Z,93.90
2019-04-04T21:06:35.760Z,96.00
2019-04-04T21:10:41.057Z,98.00
2019-04-04T21:14:46.359Z,99.40
2019-04-04T21:18:51.666Z,99.90
2019-04-04T21:22:58.102Z,99.90
2019-04-04T21:27:03.397Z,99.90
2019-04-04T21:31:08.694Z,99.90
2019-04-04T21:35:13.965Z,99.90
2019-04-04T21:39:19.296Z,99.90
2019-04-04T21:43:24.542Z,99.90
2019-04-04T21:47:29.856Z,99.90
2019-04-04T21:51:35.142Z,99.90
2019-04-04T21:55:40.535Z,99.90
2019-04-04T21:59:45.826Z,99.90
2019-04-04T22:03:51.127Z,99.90
2019-04-04T22:07:57.499Z,99.90
2019-04-04T22:12:02.895Z,99.90
2019-04-04T22:16:08.541Z,99.90
2019-04-04T22:20:13.981Z,99.90
2019-04-04T22:24:22.178Z,99.90
2019-04-04T22:28:26.254Z,99.90
2019-04-04T22:32:31.541Z,99.90
2019-04-04T22:36:36.861Z,99.90
2019-04-04T22:40:42.117Z,99.90
2019-04-04T22:44:47.407Z,99.90
2019-04-04T22:48:52.693Z,99.90
2019-04-04T22:52:58.017Z,99.90
2019-04-04T22:57:03.298Z,99.90
2019-04-04T23:01:08.574Z,99.90
2019-04-04T23:05:14.046Z,99.90
2019-04-04T23:09:19.419Z,99.90
2019-04-04T23:13:24.753Z,99.90
2019-04-04T23:17:30.039Z,99.90
2019-04-04T23:21:35.306Z,99.90
2019-04-04T23:25:40.592Z,99.90
2019-04-04T23:29:45.886Z,99.90
2019-04-04T23:33:51.177Z,99.90
2019-04-04T23:37:56.494Z,99.90
2019-04-04T23:42:01.790Z,99.90
2019-04-04T23:46:07.138Z,99.90
2019-04-04T23:50:12.769Z,99.90
2019-04-04T23:54:18.055Z,99.90
2019-04-04T23:58:23.365Z,99.90
